Time;durP1;ratioP1;P1;durP2;ratioP2;P2;SDS_P1;SDS_P2;PMS_P1;PMS_P2;Temp;Humidity;BMP_temperature;BMP_pressure;BME280_temperature;BME280_humidity;BME280_pressure;Samples;Min_cycle;Max_cycle;Signal;HPM_P1;HPM_P2
2022/07/23 00:01:30;;;;;;;;;;;17.90;99.90;;;;;;5153568;27;19910;-77
2022/07/23 00:03:55;;;;;;;;;;;17.90;99.90;;;;;;5153928;27;19910;-77
2022/07/23 00:06:21;;;;;;;;;;;17.90;99.90;;;;;;5154350;27;19907;-76
2022/07/23 00:08:47;;;;;;;;;;;17.90;99.90;;;;;;5154386;27;19942;-77
2022/07/23 00:11:13;;;;;;;;;;;17.90;99.90;;;;;;5154329;27;20244;-77
2022/07/23 00:13:38;;;;;;;;;;;18.00;99.90;;;;;;5153823;27;19903;-77
2022/07/23 00:16:04;;;;;;;;;;;18.00;99.90;;;;;;5154341;27;19911;-77
2022/07/23 00:18:30;;;;;;;;;;;18.00;99.90;;;;;;5153788;27;20396;-77
2022/07/23 00:20:55;;;;;;;;;;;18.00;99.90;;;;;;5135663;27;19907;-77
2022/07/23 00:23:21;;;;;;;;;;;18.00;99.90;;;;;;5147382;27;19904;-77
2022/07/23 00:25:47;;;;;;;;;;;17.90;99.90;;;;;;5132700;27;20394;-77
2022/07/23 00:28:12;;;;;;;;;;;17.90;99.90;;;;;;5134292;27;20252;-76
2022/07/23 00:30:38;;;;;;;;;;;18.00;99.90;;;;;;5133411;27;19904;-75
2022/07/23 00:33:05;;;;;;;;;;;17.90;99.90;;;;;;5133549;27;20308;-75
2022/07/23 00:35:35;;;;;;;;;;;18.00;99.90;;;;;;5133515;27;20367;-75
2022/07/23 00:38:04;;;;;;;;;;;18.00;99.90;;;;;;5133893;27;20002;-75
2022/07/23 00:40:30;;;;;;;;;;;18.00;99.90;;;;;;5133437;27;19927;-75
2022/07/23 00:42:56;;;;;;;;;;;18.00;99.90;;;;;;5133760;28;20329;-76
2022/07/23 00:45:22;;;;;;;;;;;18.00;99.90;;;;;;5133968;28;20100;-75
2022/07/23 00:47:48;;;;;;;;;;;18.00;99.90;;;;;;5133504;28;19904;-74
2022/07/23 00:50:13;;;;;;;;;;;18.00;99.90;;;;;;5115680;28;19998;-74
2022/07/23 00:52:40;;;;;;;;;;;18.00;99.90;;;;;;5133119;28;20256;-74
2022/07/23 00:55:06;;;;;;;;;;;18.00;99.90;;;;;;5133878;28;19918;-75
2022/07/23 00:57:32;;;;;;;;;;;18.00;99.90;;;;;;5133808;28;19903;-75
2022/07/23 00:59:57;;;;;;;;;;;18.00;99.90;;;;;;5133569;28;19949;-75
2022/07/23 01:02:24;;;;;;;;;;;18.00;99.90;;;;;;5133899;28;19904;-75
2022/07/23 01:04:49;;;;;;;;;;;17.90;99.90;;;;;;5133090;28;19957;-75
2022/07/23 01:07:15;;;;;;;;;;;17.90;99.90;;;;;;5115273;28;19903;-74
2022/07/23 01:09:41;;;;;;;;;;;17.90;99.90;;;;;;5133236;28;19907;-75
2022/07/23 01:12:07;;;;;;;;;;;17.90;99.90;;;;;;5136366;27;20374;-76
2022/07/23 01:14:33;;;;;;;;;;;17.80;99.90;;;;;;5137343;27;19955;-75
2022/07/23 01:16:59;;;;;;;;;;;17.90;99.90;;;;;;5119456;27;19969;-75
2022/07/23 01:19:24;;;;;;;;;;;17.80;99.90;;;;;;5137586;27;19903;-75
2022/07/23 01:21:51;;;;;;;;;;;17.80;99.90;;;;;;5137753;27;19992;-75
2022/07/23 01:24:19;;;;;;;;;;;17.80;99.90;;;;;;5138002;27;19907;-75
2022/07/23 01:26:46;;;;;;;;;;;17.80;99.90;;;;;;5136464;27;19903;-75
2022/07/23 01:29:12;;;;;;;;;;;17.80;99.90;;;;;;5138200;27;19994;-75
2022/07/23 01:31:38;;;;;;;;;;;17.80;99.90;;;;;;5137951;27;19951;-75
2022/07/23 01:34:04;;;;;;;;;;;17.80;99.90;;;;;;5137060;27;20365;-76
2022/07/23 01:36:30;;;;;;;;;;;17.80;99.90;;;;;;5137111;27;19956;-75
2022/07/23 01:38:55;;;;;;;;;;;17.80;99.90;;;;;;5137334;27;19903;-75
2022/07/23 01:41:21;;;;;;;;;;;17.90;99.90;;;;;;5137289;27;20360;-75
2022/07/23 01:43:46;;;;;;;;;;;17.90;99.90;;;;;;5136733;27;19915;-76
2022/07/23 01:46:12;;;;;;;;;;;17.90;99.90;;;;;;5137681;27;20240;-75
2022/07/23 01:48:38;;;;;;;;;;;18.00;99.90;;;;;;5118151;27;19950;-75
2022/07/23 01:51:03;;;;;;;;;;;18.00;99.90;;;;;;5136900;27;19956;-75
2022/07/23 01:53:31;;;;;;;;;;;18.00;99.90;;;;;;5136717;27;20014;-75
2022/07/23 01:55:57;;;;;;;;;;;18.00;99.90;;;;;;5137038;27;19960;-75
2022/07/23 01:58:22;;;;;;;;;;;18.00;99.90;;;;;;5137167;27;20345;-75
2022/07/23 02:00:48;;;;;;;;;;;18.00;99.90;;;;;;5117821;27;19952;-76
2022/07/23 02:03:13;;;;;;;;;;;18.10;99.90;;;;;;5136971;27;19903;-76
2022/07/23 02:05:39;;;;;;;;;;;18.10;99.90;;;;;;5136448;27;19903;-75
2022/07/23 02:08:05;;;;;;;;;;;18.10;99.90;;;;;;5118499;27;20252;-76
2022/07/23 02:10:30;;;;;;;;;;;18.10;99.90;;;;;;5136412;27;19904;-76
2022/07/23 02:12:56;;;;;;;;;;;18.10;99.90;;;;;;5136395;27;19908;-76
2022/07/23 02:15:22;;;;;;;;;;;18.10;99.90;;;;;;5136449;27;20434;-76
2022/07/23 02:17:47;;;;;;;;;;;18.10;99.90;;;;;;5136458;27;19908;-75
2022/07/23 02:20:14;;;;;;;;;;;18.10;99.90;;;;;;5136730;27;19952;-76
2022/07/23 02:22:39;;;;;;;;;;;18.00;99.90;;;;;;5135366;27;19982;-74
2022/07/23 02:25:05;;;;;;;;;;;17.90;99.90;;;;;;5136355;27;19927;-75
2022/07/23 02:27:31;;;;;;;;;;;17.70;99.90;;;;;;5136063;27;19910;-76
2022/07/23 02:29:57;;;;;;;;;;;17.70;99.90;;;;;;5135861;27;19915;-74
2022/07/23 02:32:23;;;;;;;;;;;17.60;99.90;;;;;;5136451;27;20339;-75
2022/07/23 02:34:49;;;;;;;;;;;17.50;99.90;;;;;;5135128;27;19915;-75
2022/07/23 02:37:15;;;;;;;;;;;17.40;99.90;;;;;;5136178;27;19907;-75
2022/07/23 02:39:40;;;;;;;;;;;17.40;99.90;;;;;;5135471;27;20401;-74
2022/07/23 02:42:06;;;;;;;;;;;17.40;99.90;;;;;;5136316;27;19907;-75
2022/07/23 02:44:31;;;;;;;;;;;17.40;99.90;;;;;;5136196;27;20370;-75
2022/07/23 02:46:57;;;;;;;;;;;17.40;99.90;;;;;;5135745;27;19997;-75
2022/07/23 02:49:23;;;;;;;;;;;17.40;99.90;;;;;;5136011;27;19908;-75
2022/07/23 02:51:48;;;;;;;;;;;17.40;99.90;;;;;;5135466;27;20277;-75
2022/07/23 02:54:14;;;;;;;;;;;17.40;99.90;;;;;;5135634;27;19946;-75
2022/07/23 02:56:39;;;;;;;;;;;17.40;99.90;;;;;;5135043;27;19908;-75
2022/07/23 02:59:05;;;;;;;;;;;17.40;99.90;;;;;;5136038;27;19904;-76
2022/07/23 03:01:31;;;;;;;;;;;17.50;99.90;;;;;;5117353;27;19911;-75
2022/07/23 03:03:56;;;;;;;;;;;17.50;99.90;;;;;;5134888;27;19911;-75
2022/07/23 03:06:22;;;;;;;;;;;17.50;99.90;;;;;;5135881;27;19904;-75
2022/07/23 03:08:48;;;;;;;;;;;17.50;99.90;;;;;;5134856;27;19956;-76
2022/07/23 03:11:14;;;;;;;;;;;17.40;99.90;;;;;;5135752;27;19904;-76
2022/07/23 03:13:40;;;;;;;;;;;17.40;99.90;;;;;;5134937;27;19990;-76
2022/07/23 03:16:06;;;;;;;;;;;17.50;99.90;;;;;;5135359;27;19960;-76
2022/07/23 03:18:32;;;;;;;;;;;17.40;99.90;;;;;;5135624;27;19908;-77
2022/07/23 03:20:57;;;;;;;;;;;17.40;99.90;;;;;;5116527;27;19908;-76
2022/07/23 03:23:23;;;;;;;;;;;17.40;99.90;;;;;;5135171;27;20378;-76
2022/07/23 03:25:48;;;;;;;;;;;17.40;99.90;;;;;;5134673;27;20297;-74
2022/07/23 03:28:15;;;;;;;;;;;17.40;99.90;;;;;;5135322;27;19942;-75
2022/07/23 03:30:41;;;;;;;;;;;17.40;99.90;;;;;;5134453;27;20356;-74
2022/07/23 03:33:07;;;;;;;;;;;17.40;99.90;;;;;;5134834;27;19960;-75
2022/07/23 03:35:33;;;;;;;;;;;17.40;99.90;;;;;;5134194;27;20009;-75
2022/07/23 03:37:58;;;;;;;;;;;17.40;99.90;;;;;;5116154;27;19915;-75
2022/07/23 03:40:24;;;;;;;;;;;17.40;99.90;;;;;;5134734;27;19903;-75
2022/07/23 03:42:49;;;;;;;;;;;17.40;99.90;;;;;;5134028;27;19903;-75
2022/07/23 03:45:15;;;;;;;;;;;17.30;99.90;;;;;;5134655;27;19926;-76
2022/07/23 03:47:41;;;;;;;;;;;17.30;99.90;;;;;;5116015;27;19907;-76
2022/07/23 03:50:07;;;;;;;;;;;17.30;99.90;;;;;;5134716;27;19954;-76
2022/07/23 03:52:32;;;;;;;;;;;17.40;99.90;;;;;;5134734;27;19904;-76
2022/07/23 03:54:58;;;;;;;;;;;17.40;99.90;;;;;;5134126;27;19944;-76
2022/07/23 03:57:23;;;;;;;;;;;17.40;99.90;;;;;;5134586;27;19943;-76
2022/07/23 03:59:49;;;;;;;;;;;17.40;99.90;;;;;;5115730;27;19903;-76
2022/07/23 04:02:15;;;;;;;;;;;17.40;99.90;;;;;;5134728;27;19956;-76
2022/07/23 04:04:40;;;;;;;;;;;17.40;99.90;;;;;;5134109;27;20352;-76
2022/07/23 04:07:07;;;;;;;;;;;17.40;99.90;;;;;;5134531;27;19903;-75
2022/07/23 04:09:33;;;;;;;;;;;17.40;99.90;;;;;;5134430;27;19907;-75
2022/07/23 04:11:59;;;;;;;;;;;17.40;99.90;;;;;;5133845;27;19904;-75
2022/07/23 04:14:24;;;;;;;;;;;17.40;99.90;;;;;;5134632;27;19919;-76
2022/07/23 04:16:50;;;;;;;;;;;17.40;99.90;;;;;;5133637;27;19935;-76
2022/07/23 04:19:16;;;;;;;;;;;17.40;99.90;;;;;;5134424;27;19904;-76
2022/07/23 04:21:41;;;;;;;;;;;17.40;99.90;;;;;;5133582;27;19903;-76
2022/07/23 04:24:07;;;;;;;;;;;17.40;99.90;;;;;;5134204;27;20375;-76
2022/07/23 04:26:32;;;;;;;;;;;17.40;99.90;;;;;;5098947;27;19908;-76
2022/07/23 04:28:58;;;;;;;;;;;17.40;99.90;;;;;;5133437;27;20399;-75
2022/07/23 04:31:23;;;;;;;;;;;17.40;99.90;;;;;;5115607;27;19903;-76
2022/07/23 04:33:49;;;;;;;;;;;17.30;99.90;;;;;;5133385;27;20362;-74
2022/07/23 04:36:15;;;;;;;;;;;17.30;99.90;;;;;;5115495;27;20312;-75
2022/07/23 04:38:40;;;;;;;;;;;17.30;99.90;;;;;;5133693;27;19904;-75
2022/07/23 04:41:06;;;;;;;;;;;17.30;99.90;;;;;;5133700;27;19943;-76
2022/07/23 04:43:31;;;;;;;;;;;17.30;99.90;;;;;;5133847;28;19903;-75
2022/07/23 04:45:57;;;;;;;;;;;17.30;99.90;;;;;;5132919;27;19903;-74
2022/07/23 04:48:22;;;;;;;;;;;17.30;99.90;;;;;;5133851;28;19904;-75
2022/07/23 04:50:48;;;;;;;;;;;17.40;99.90;;;;;;5133507;28;20355;-75
2022/07/23 04:53:14;;;;;;;;;;;17.40;99.90;;;;;;5134154;28;19903;-75
2022/07/23 04:55:39;;;;;;;;;;;17.40;99.90;;;;;;5133937;28;19922;-75
2022/07/23 04:58:05;;;;;;;;;;;17.50;99.90;;;;;;5133542;28;19911;-75
2022/07/23 05:00:30;;;;;;;;;;;17.60;99.90;;;;;;5133770;28;19903;-76
2022/07/23 05:02:56;;;;;;;;;;;17.60;99.90;;;;;;5133650;28;20324;-76
2022/07/23 05:05:21;;;;;;;;;;;17.60;99.90;;;;;;5133907;28;19904;-75
2022/07/23 05:07:47;;;;;;;;;;;17.70;99.90;;;;;;5133395;28;20007;-75
2022/07/23 05:10:13;;;;;;;;;;;17.70;99.90;;;;;;5134051;28;19903;-76
2022/07/23 05:12:38;;;;;;;;;;;17.60;99.90;;;;;;5133932;28;19926;-76
2022/07/23 05:15:04;;;;;;;;;;;17.70;99.90;;;;;;5132909;28;19923;-76
2022/07/23 05:17:29;;;;;;;;;;;17.70;99.90;;;;;;5133441;28;19904;-75
2022/07/23 05:19:55;;;;;;;;;;;17.60;99.90;;;;;;5133230;28;19910;-75
2022/07/23 05:22:21;;;;;;;;;;;17.70;99.90;;;;;;5133475;28;19943;-76
2022/07/23 05:24:46;;;;;;;;;;;17.70;99.90;;;;;;5133148;28;19908;-75
2022/07/23 05:27:12;;;;;;;;;;;17.70;99.90;;;;;;5133928;28;19986;-76
2022/07/23 05:29:37;;;;;;;;;;;17.70;99.90;;;;;;5134159;28;19903;-77
2022/07/23 05:32:03;;;;;;;;;;;17.70;99.90;;;;;;5132721;28;19911;-77
2022/07/23 05:34:28;;;;;;;;;;;17.70;99.90;;;;;;5133167;28;19923;-77
2022/07/23 05:36:54;;;;;;;;;;;17.70;99.90;;;;;;5133096;28;19910;-76
2022/07/23 05:39:19;;;;;;;;;;;17.60;99.90;;;;;;5133318;28;20346;-76
2022/07/23 05:41:45;;;;;;;;;;;17.60;99.90;;;;;;5133158;28;19903;-77
2022/07/23 05:44:11;;;;;;;;;;;17.60;99.90;;;;;;5133178;28;19972;-78
2022/07/23 05:46:36;;;;;;;;;;;17.60;99.90;;;;;;5133597;28;20337;-80
2022/07/23 05:49:02;;;;;;;;;;;17.50;99.90;;;;;;5132789;28;19908;-79
2022/07/23 05:51:27;;;;;;;;;;;17.50;99.90;;;;;;5133445;28;19926;-79
2022/07/23 05:53:53;;;;;;;;;;;17.50;99.90;;;;;;5132929;28;19903;-80
2022/07/23 05:56:19;;;;;;;;;;;17.40;99.90;;;;;;5133261;28;19984;-80
2022/07/23 05:58:44;;;;;;;;;;;17.40;99.90;;;;;;5134926;27;19910;-78
2022/07/23 06:01:11;;;;;;;;;;;17.40;99.90;;;;;;5136391;27;19910;-78
2022/07/23 06:03:37;;;;;;;;;;;17.30;99.90;;;;;;5136983;27;19907;-77
2022/07/23 06:06:03;;;;;;;;;;;17.30;99.90;;;;;;5136221;27;19952;-77
2022/07/23 06:08:29;;;;;;;;;;;17.30;99.90;;;;;;5136663;27;19928;-79
2022/07/23 06:10:55;;;;;;;;;;;17.30;99.90;;;;;;5135928;27;19994;-80
2022/07/23 06:13:20;;;;;;;;;;;17.30;99.90;;;;;;5136611;27;19904;-79
2022/07/23 06:15:46;;;;;;;;;;;17.30;99.90;;;;;;5136673;27;19915;-79
2022/07/23 06:18:12;;;;;;;;;;;17.30;99.90;;;;;;5137410;27;19904;-84
2022/07/23 06:20:37;;;;;;;;;;;17.30;99.90;;;;;;5136819;27;19949;-79
2022/07/23 06:23:03;;;;;;;;;;;17.30;99.90;;;;;;5135819;27;19903;-79
2022/07/23 06:25:29;;;;;;;;;;;17.30;99.90;;;;;;5136856;27;19929;-79
2022/07/23 06:27:54;;;;;;;;;;;17.20;99.90;;;;;;5135472;27;19990;-80
2022/07/23 06:30:20;;;;;;;;;;;17.20;99.90;;;;;;5136295;27;19904;-81
2022/07/23 06:32:47;;;;;;;;;;;17.20;99.90;;;;;;5136176;27;20002;-80
2022/07/23 06:35:12;;;;;;;;;;;17.20;99.90;;;;;;5135441;27;20298;-78
2022/07/23 06:37:38;;;;;;;;;;;17.20;99.90;;;;;;5136050;27;19904;-77
2022/07/23 06:40:04;;;;;;;;;;;17.20;99.90;;;;;;5135247;27;19986;-78
2022/07/23 06:42:29;;;;;;;;;;;17.20;99.90;;;;;;5136089;27;19926;-78
2022/07/23 06:44:55;;;;;;;;;;;17.20;99.90;;;;;;5135465;27;19910;-77
2022/07/23 06:47:21;;;;;;;;;;;17.20;99.90;;;;;;5136081;27;19911;-80
2022/07/23 06:49:46;;;;;;;;;;;17.20;99.90;;;;;;5135992;27;19907;-79
2022/07/23 06:52:12;;;;;;;;;;;17.30;99.90;;;;;;5135461;27;19903;-80
2022/07/23 06:54:37;;;;;;;;;;;17.30;99.90;;;;;;5135924;27;19969;-80
2022/07/23 06:57:03;;;;;;;;;;;17.40;99.90;;;;;;5117011;27;20255;-80
2022/07/23 06:59:29;;;;;;;;;;;17.30;99.90;;;;;;5135861;27;19990;-81
2022/07/23 07:01:54;;;;;;;;;;;17.30;99.90;;;;;;5135226;27;19908;-78
2022/07/23 07:04:20;;;;;;;;;;;17.40;99.90;;;;;;5135646;27;19904;-80
2022/07/23 07:06:45;;;;;;;;;;;17.30;99.90;;;;;;5135807;27;19904;-79
2022/07/23 07:09:11;;;;;;;;;;;17.30;99.90;;;;;;5135123;27;20146;-79
2022/07/23 07:11:36;;;;;;;;;;;17.40;99.90;;;;;;5135197;27;19907;-78
2022/07/23 07:14:04;;;;;;;;;;;17.40;99.90;;;;;;5134718;27;19960;-78
2022/07/23 07:16:29;;;;;;;;;;;17.40;99.90;;;;;;5135400;27;19946;-78
2022/07/23 07:18:55;;;;;;;;;;;17.40;99.90;;;;;;5134923;27;19903;-77
2022/07/23 07:21:20;;;;;;;;;;;17.40;99.90;;;;;;5135506;27;19918;-79
2022/07/23 07:23:46;;;;;;;;;;;17.40;99.90;;;;;;5135453;27;20022;-79
2022/07/23 07:26:11;;;;;;;;;;;17.40;99.90;;;;;;5134461;27;19904;-78
2022/07/23 07:28:37;;;;;;;;;;;17.40;99.90;;;;;;5135253;27;19927;-79
2022/07/23 07:31:03;;;;;;;;;;;17.50;99.90;;;;;;5134399;27;19948;-78
2022/07/23 07:33:28;;;;;;;;;;;17.50;99.90;;;;;;5135111;27;19915;-78
2022/07/23 07:35:54;;;;;;;;;;;17.60;99.90;;;;;;5134297;27;20010;-77
2022/07/23 07:38:20;;;;;;;;;;;17.60;99.90;;;;;;5134819;27;19910;-78
2022/07/23 07:40:45;;;;;;;;;;;17.60;99.90;;;;;;5134823;27;19910;-78
2022/07/23 07:43:11;;;;;;;;;;;17.60;99.90;;;;;;5134352;27;19903;-77
2022/07/23 07:45:37;;;;;;;;;;;17.60;99.90;;;;;;5135082;27;20346;-77
2022/07/23 07:48:02;;;;;;;;;;;17.60;99.90;;;;;;5134334;27;19990;-77
2022/07/23 07:50:28;;;;;;;;;;;17.60;99.90;;;;;;5134592;27;19956;-78
2022/07/23 07:52:53;;;;;;;;;;;17.60;99.90;;;;;;5134342;27;19968;-76
2022/07/23 07:55:19;;;;;;;;;;;17.70;99.90;;;;;;5134525;27;19918;-78
2022/07/23 07:57:44;;;;;;;;;;;17.70;99.90;;;;;;5134797;27;19994;-78
2022/07/23 08:00:11;;;;;;;;;;;17.80;99.90;;;;;;5134179;27;19918;-78
2022/07/23 08:02:55;;;;;;;;;;;17.80;99.90;;;;;;5134577;27;20336;-76
2022/07/23 08:05:24;;;;;;;;;;;17.80;99.90;;;;;;5134458;27;19904;-78
2022/07/23 08:07:50;;;;;;;;;;;17.90;99.90;;;;;;5134578;27;19946;-77
2022/07/23 08:10:16;;;;;;;;;;;17.90;99.90;;;;;;5133842;27;19947;-77
2022/07/23 08:12:45;;;;;;;;;;;17.90;99.90;;;;;;5134533;27;19904;-77
2022/07/23 08:15:11;;;;;;;;;;;17.90;99.90;;;;;;5133671;27;19918;-76
2022/07/23 08:17:37;;;;;;;;;;;17.90;99.90;;;;;;5134385;27;19941;-77
2022/07/23 08:20:03;;;;;;;;;;;18.00;99.90;;;;;;5115214;27;19965;-76
2022/07/23 08:23:04;;;;;;;;;;;17.90;99.90;;;;;;5133677;27;19998;-76
2022/07/23 08:25:31;;;;;;;;;;;18.00;99.90;;;;;;5030961;28;20360;-76
2022/07/23 08:27:58;;;;;;;;;;;18.00;99.90;;;;;;5112619;27;19949;-76
2022/07/23 08:30:23;;;;;;;;;;;18.10;99.90;;;;;;5134313;27;19910;-76
2022/07/23 08:33:07;;;;;;;;;;;18.10;99.90;;;;;;5133956;27;19904;-76
2022/07/23 08:35:34;;;;;;;;;;;18.20;99.90;;;;;;5134001;27;20006;-77
2022/07/23 08:38:01;;;;;;;;;;;18.40;99.90;;;;;;5133262;27;19903;-77
2022/07/23 08:40:27;;;;;;;;;;;18.40;99.90;;;;;;5133903;27;19907;-77
2022/07/23 08:42:53;;;;;;;;;;;18.40;99.90;;;;;;5133601;27;19903;-77
2022/07/23 08:45:20;;;;;;;;;;;18.50;99.90;;;;;;5133033;28;19914;-77
2022/07/23 08:47:49;;;;;;;;;;;18.60;99.90;;;;;;5133932;28;20345;-77
2022/07/23 08:50:15;;;;;;;;;;;18.70;99.90;;;;;;5133222;28;19903;-77
2022/07/23 08:52:41;;;;;;;;;;;18.80;99.90;;;;;;5115573;28;19910;-76
2022/07/23 08:55:07;;;;;;;;;;;18.80;99.90;;;;;;5133228;28;19915;-76
2022/07/23 08:57:33;;;;;;;;;;;18.90;99.90;;;;;;5115182;28;19990;-76
2022/07/23 08:59:58;;;;;;;;;;;18.90;99.90;;;;;;5133415;28;19910;-76
2022/07/23 09:02:24;;;;;;;;;;;18.90;99.90;;;;;;5133509;28;19956;-76
2022/07/23 09:04:50;;;;;;;;;;;19.00;99.90;;;;;;5145790;27;19903;-77
2022/07/23 09:07:15;;;;;;;;;;;19.00;99.90;;;;;;5153836;27;19905;-76
2022/07/23 09:09:41;;;;;;;;;;;19.10;99.90;;;;;;5154115;27;20312;-77
2022/07/23 09:12:08;;;;;;;;;;;19.10;99.90;;;;;;5153591;27;19914;-76
2022/07/23 09:14:38;;;;;;;;;;;19.10;99.90;;;;;;5154587;27;19917;-77
2022/07/23 09:17:14;;;;;;;;;;;19.10;99.90;;;;;;5153648;27;19903;-77
2022/07/23 09:19:40;;;;;;;;;;;19.10;99.90;;;;;;5154022;27;19904;-77
2022/07/23 09:22:21;;;;;;;;;;;19.10;99.90;;;;;;5153591;27;19904;-76
2022/07/23 09:25:03;;;;;;;;;;;19.10;99.90;;;;;;5154140;27;20026;-76
2022/07/23 09:27:47;;;;;;;;;;;19.10;99.90;;;;;;5153787;27;19942;-77
2022/07/23 09:30:12;;;;;;;;;;;19.00;99.90;;;;;;5153694;27;19903;-77
2022/07/23 09:32:41;;;;;;;;;;;19.10;99.90;;;;;;5154143;27;20251;-78
2022/07/23 09:35:07;;;;;;;;;;;19.10;99.90;;;;;;5157569;27;19919;-78
2022/07/23 09:37:33;;;;;;;;;;;19.10;99.90;;;;;;5157689;27;20356;-78
2022/07/23 09:40:09;;;;;;;;;;;19.10;99.90;;;;;;5158044;27;19909;-78
2022/07/23 09:42:34;;;;;;;;;;;19.10;99.90;;;;;;5157802;27;19910;-78
2022/07/23 09:45:00;;;;;;;;;;;19.10;99.90;;;;;;5157838;27;19998;-77
2022/07/23 09:47:28;;;;;;;;;;;19.20;99.90;;;;;;5157561;27;19963;-78
2022/07/23 09:50:00;;;;;;;;;;;19.20;99.90;;;;;;5157510;27;19907;-77
2022/07/23 09:52:33;;;;;;;;;;;19.30;99.90;;;;;;5157312;27;19903;-77
2022/07/23 09:55:00;;;;;;;;;;;19.40;99.90;;;;;;5157768;27;19912;-77
2022/07/23 09:57:26;;;;;;;;;;;19.50;99.90;;;;;;5156926;27;19926;-77
2022/07/23 09:59:52;;;;;;;;;;;19.60;99.90;;;;;;5157294;27;19904;-78
2022/07/23 10:02:19;;;;;;;;;;;19.60;99.90;;;;;;5156786;27;19903;-77
2022/07/23 10:04:44;;;;;;;;;;;19.80;99.90;;;;;;5138969;27;19906;-78
2022/07/23 10:07:10;;;;;;;;;;;19.90;99.90;;;;;;5156925;27;19910;-78
2022/07/23 10:09:38;;;;;;;;;;;19.90;99.90;;;;;;5157396;27;19903;-78
2022/07/23 10:14:32;;;;;;;;;;;20.00;99.90;;;;;;5157341;27;20331;-77
2022/07/23 10:16:58;;;;;;;;;;;20.00;99.90;;;;;;5156950;27;20347;-78
2022/07/23 10:19:24;;;;;;;;;;;20.10;99.90;;;;;;5156416;27;19909;-75
2022/07/23 10:21:52;;;;;;;;;;;20.10;99.90;;;;;;5157273;27;20243;-78
2022/07/23 10:24:36;;;;;;;;;;;20.10;99.90;;;;;;5156261;27;19914;-78
2022/07/23 10:27:07;;;;;;;;;;;20.20;99.90;;;;;;5157364;27;19907;-76
2022/07/23 10:29:40;;;;;;;;;;;20.20;99.90;;;;;;5157022;27;19962;-77
2022/07/23 10:32:14;;;;;;;;;;;20.20;99.90;;;;;;5156499;27;19938;-76
2022/07/23 10:34:42;;;;;;;;;;;20.20;99.90;;;;;;5157091;27;19969;-77
2022/07/23 10:37:25;;;;;;;;;;;20.30;99.90;;;;;;5156471;27;19971;-77
2022/07/23 10:40:09;;;;;;;;;;;20.20;99.90;;;;;;5156777;27;20423;-77
2022/07/23 10:42:36;;;;;;;;;;;20.20;99.90;;;;;;5156675;27;19926;-75
2022/07/23 10:45:21;;;;;;;;;;;20.20;99.90;;;;;;5155929;27;19907;-76
2022/07/23 10:47:47;;;;;;;;;;;20.20;99.90;;;;;;5147664;27;19911;-75
2022/07/23 10:50:20;;;;;;;;;;;20.20;99.90;;;;;;5116909;27;20404;-75
2022/07/23 10:53:04;;;;;;;;;;;20.30;99.90;;;;;;5117509;27;19907;-76
2022/07/23 10:55:29;;;;;;;;;;;20.30;99.90;;;;;;5134963;27;19911;-76
2022/07/23 10:57:55;;;;;;;;;;;20.40;99.90;;;;;;5135046;27;19904;-76
2022/07/23 11:00:28;;;;;;;;;;;20.40;99.90;;;;;;5135034;27;19910;-76
2022/07/23 11:02:56;;;;;;;;;;;20.50;99.90;;;;;;5135088;27;20406;-76
2022/07/23 11:05:23;;;;;;;;;;;20.50;99.90;;;;;;5135085;27;19911;-76
2022/07/23 11:08:04;;;;;;;;;;;20.60;99.90;;;;;;5135729;27;20271;-76
2022/07/23 11:10:46;;;;;;;;;;;20.80;99.90;;;;;;5134748;27;19904;-76
2022/07/23 11:13:23;;;;;;;;;;;21.00;99.90;;;;;;5134998;27;19907;-76
2022/07/23 11:16:01;;;;;;;;;;;21.10;99.90;;;;;;5135818;27;19918;-76
2022/07/23 11:18:39;;;;;;;;;;;21.40;99.90;;;;;;5134998;27;20570;-76
2022/07/23 11:21:31;;;;;;;;;;;21.60;99.90;;;;;;5135217;27;19904;-76
2022/07/23 11:24:04;;;;;;;;;;;21.70;99.90;;;;;;5135393;27;20005;-76
2022/07/23 11:26:44;;;;;;;;;;;21.80;99.90;;;;;;5135058;27;19907;-77
2022/07/23 11:29:28;;;;;;;;;;;21.80;99.90;;;;;;5134774;27;19907;-76
2022/07/23 11:31:56;;;;;;;;;;;21.90;99.90;;;;;;5134887;27;20256;-77
2022/07/23 11:34:30;;;;;;;;;;;21.90;99.90;;;;;;5134050;27;19916;-77
2022/07/23 11:36:56;;;;;;;;;;;22.00;99.90;;;;;;5134756;27;19907;-77
2022/07/23 11:39:24;;;;;;;;;;;22.00;99.90;;;;;;5134465;27;20003;-76
2022/07/23 11:41:50;;;;;;;;;;;22.20;99.90;;;;;;5134977;27;19903;-76
2022/07/23 11:44:29;;;;;;;;;;;22.50;99.90;;;;;;5134185;27;19954;-77
2022/07/23 11:46:59;;;;;;;;;;;22.60;99.90;;;;;;5134953;27;19973;-76
2022/07/23 11:49:25;;;;;;;;;;;22.80;99.90;;;;;;5115672;27;19952;-76
2022/07/23 11:52:10;;;;;;;;;;;23.00;99.90;;;;;;5134866;27;19907;-76
2022/07/23 11:54:37;;;;;;;;;;;23.20;99.90;;;;;;5134482;27;19956;-77
2022/07/23 11:57:02;;;;;;;;;;;23.30;99.90;;;;;;5133833;27;19911;-76
2022/07/23 11:59:32;;;;;;;;;;;23.40;99.90;;;;;;5134226;27;20258;-77
2022/07/23 12:01:59;;;;;;;;;;;23.40;99.90;;;;;;5134638;27;19993;-77
2022/07/23 12:04:45;;;;;;;;;;;23.40;99.90;;;;;;5134038;27;20366;-76
2022/07/23 12:07:23;;;;;;;;;;;23.40;99.90;;;;;;5133241;27;19998;-75
2022/07/23 12:09:48;;;;;;;;;;;23.30;99.90;;;;;;5115514;27;19904;-75
2022/07/23 12:12:14;;;;;;;;;;;23.40;99.90;;;;;;5133535;27;19956;-75
2022/07/23 12:14:53;;;;;;;;;;;23.50;99.90;;;;;;5133752;27;20386;-76
2022/07/23 12:17:20;;;;;;;;;;;23.50;99.90;;;;;;5133721;27;20244;-75
2022/07/23 12:19:45;;;;;;;;;;;23.60;99.90;;;;;;5134115;27;19908;-76
2022/07/23 12:22:11;;;;;;;;;;;23.60;99.90;;;;;;5133897;27;19903;-76
2022/07/23 12:24:55;;;;;;;;;;;23.60;99.90;;;;;;5134059;27;19994;-77
2022/07/23 12:27:21;;;;;;;;;;;23.60;99.90;;;;;;5115088;27;19903;-76
2022/07/23 12:29:47;;;;;;;;;;;23.60;99.90;;;;;;5133503;27;19947;-77
2022/07/23 12:32:23;;;;;;;;;;;23.70;99.90;;;;;;5115805;27;20302;-74
2022/07/23 12:34:50;;;;;;;;;;;23.80;99.90;;;;;;5116157;27;19962;-76
2022/07/23 12:37:29;;;;;;;;;;;24.00;99.90;;;;;;5133777;27;19904;-75
2022/07/23 12:39:55;;;;;;;;;;;24.10;99.90;;;;;;5130847;27;19903;-76
2022/07/23 12:42:20;;;;;;;;;;;24.20;99.90;;;;;;5116144;27;20024;-77
2022/07/23 12:45:05;;;;;;;;;;;24.00;99.90;;;;;;5116334;27;19994;-77
2022/07/23 12:47:30;;;;;;;;;;;24.00;99.90;;;;;;5134698;27;20807;-77
2022/07/23 12:49:56;;;;;;;;;;;23.90;99.90;;;;;;5116388;28;20007;-76
2022/07/23 12:52:21;;;;;;;;;;;23.80;99.90;;;;;;5114740;28;19903;-77
2022/07/23 12:54:47;;;;;;;;;;;23.80;99.90;;;;;;5133675;28;19922;-76
2022/07/23 12:57:13;;;;;;;;;;;23.80;99.90;;;;;;5132976;28;19904;-75
2022/07/23 12:59:39;;;;;;;;;;;23.80;99.90;;;;;;5134401;28;19968;-77
2022/07/23 13:02:08;;;;;;;;;;;23.90;99.90;;;;;;5116109;28;19903;-77
2022/07/23 13:04:33;;;;;;;;;;;23.90;99.90;;;;;;5133092;28;19909;-77
2022/07/23 13:07:02;;;;;;;;;;;24.00;99.90;;;;;;5135174;27;19989;-74
2022/07/23 13:09:29;;;;;;;;;;;24.20;99.90;;;;;;5137437;27;19956;-77
2022/07/23 13:11:55;;;;;;;;;;;24.30;99.90;;;;;;5139614;27;19903;-78
2022/07/23 13:14:21;;;;;;;;;;;24.40;99.90;;;;;;5120399;27;19903;-75
2022/07/23 13:16:47;;;;;;;;;;;24.40;99.90;;;;;;5137637;27;19910;-75
2022/07/23 13:19:13;;;;;;;;;;;24.50;99.90;;;;;;5119202;27;20247;-75
2022/07/23 13:21:39;;;;;;;;;;;24.40;99.90;;;;;;5137743;27;19904;-77
2022/07/23 13:24:05;;;;;;;;;;;24.50;99.90;;;;;;5137924;27;19907;-76
2022/07/23 13:26:30;;;;;;;;;;;24.60;99.90;;;;;;5118616;27;20002;-74
2022/07/23 13:28:56;;;;;;;;;;;24.70;99.90;;;;;;5138005;27;20328;-76
2022/07/23 13:31:22;;;;;;;;;;;24.80;99.90;;;;;;5137599;27;19948;-76
2022/07/23 13:33:47;;;;;;;;;;;24.90;99.90;;;;;;5137232;27;20374;-76
2022/07/23 13:36:13;;;;;;;;;;;24.80;99.90;;;;;;5137381;27;19911;-75
2022/07/23 13:38:39;;;;;;;;;;;24.70;99.90;;;;;;5136820;27;19904;-75
2022/07/23 13:41:05;;;;;;;;;;;24.70;99.90;;;;;;5137202;27;19903;-76
2022/07/23 13:43:31;;;;;;;;;;;24.70;99.90;;;;;;5136544;27;20316;-77
2022/07/23 13:45:56;;;;;;;;;;;24.60;99.90;;;;;;5137228;27;19911;-76
2022/07/23 13:48:22;;;;;;;;;;;24.50;99.90;;;;;;5136596;27;19903;-76
2022/07/23 13:50:48;;;;;;;;;;;24.50;99.90;;;;;;5138395;27;20302;-76
2022/07/23 13:53:16;;;;;;;;;;;24.50;99.90;;;;;;5137788;27;20318;-76
2022/07/23 13:55:42;;;;;;;;;;;24.40;99.90;;;;;;5136742;27;20009;-77
2022/07/23 13:58:08;;;;;;;;;;;24.30;99.90;;;;;;5136874;27;19951;-76
2022/07/23 14:00:34;;;;;;;;;;;24.20;99.90;;;;;;5136275;27;19911;-76
2022/07/23 14:03:00;;;;;;;;;;;24.10;99.90;;;;;;5118575;27;20260;-76
2022/07/23 14:05:26;;;;;;;;;;;24.10;99.90;;;;;;5135425;27;19910;-76
2022/07/23 14:07:52;;;;;;;;;;;24.10;99.90;;;;;;5136294;27;19904;-77
2022/07/23 14:10:19;;;;;;;;;;;24.20;99.90;;;;;;5135586;27;19912;-77
2022/07/23 14:12:45;;;;;;;;;;;24.30;99.90;;;;;;5136263;27;20040;-77
2022/07/23 14:15:11;;;;;;;;;;;24.30;99.90;;;;;;5135876;27;19911;-78
2022/07/23 14:17:38;;;;;;;;;;;24.30;99.90;;;;;;5135443;27;19936;-77
2022/07/23 14:20:04;;;;;;;;;;;24.30;99.90;;;;;;5135114;27;19910;-77